sensor_id;sensor_type;location;lat;lon;timestamp;temperature;humidity
13472;DHT22;6808;49.444;11.034;2022-10-31T00:00:23;12.70;99.90
13472;DHT22;6808;49.444;11.034;2022-10-31T00:02:49;12.70;99.90
13472;DHT22;6808;49.444;11.034;2022-10-31T00:05:14;12.70;99.90
13472;DHT22;6808;49.444;11.034;2022-10-31T00:07:40;12.60;99.90
13472;DHT22;6808;49.444;11.034;2022-10-31T00:10:06;12.60;99.90
13472;DHT22;6808;49.444;11.034;2022-10-31T00:12:32;12.50;99.90
13472;DHT22;6808;49.444;11.034;2022-10-31T00:14:58;12.50;99.90
13472;DHT22;6808;49.444;11.034;2022-10-31T00:17:23;12.40;99.90
13472;DHT22;6808;49.444;11.034;2022-10-31T00:19:49;13.00;99.90
13472;DHT22;6808;49.444;11.034;2022-10-31T00:22:14;13.00;99.90
13472;DHT22;6808;49.444;11.034;2022-10-31T00:24:40;12.50;99.90
13472;DHT22;6808;49.444;11.034;2022-10-31T00:27:05;12.50;99.90
13472;DHT22;6808;49.444;11.034;2022-10-31T00:29:31;12.60;99.90
13472;DHT22;6808;49.444;11.034;2022-10-31T00:31:57;12.40;99.90
13472;DHT22;6808;49.444;11.034;2022-10-31T00:34:23;12.40;99.90
13472;DHT22;6808;49.444;11.034;2022-10-31T00:36:48;12.30;99.90
13472;DHT22;6808;49.444;11.034;2022-10-31T00:39:14;12.30;99.90
13472;DHT22;6808;49.444;11.034;2022-10-31T00:41:39;12.30;99.90
13472;DHT22;6808;49.444;11.034;2022-10-31T00:44:05;12.30;99.90
13472;DHT22;6808;49.444;11.034;2022-10-31T00:46:30;12.40;99.90
13472;DHT22;6808;49.444;11.034;2022-10-31T00:48:56;12.20;99.90
13472;DHT22;6808;49.444;11.034;2022-10-31T00:51:21;12.50;99.90
13472;DHT22;6808;49.444;11.034;2022-10-31T00:53:47;12.20;99.90
13472;DHT22;6808;49.444;11.034;2022-10-31T00:56:13;12.20;99.90
13472;DHT22;6808;49.444;11.034;2022-10-31T00:58:38;12.20;99.90
13472;DHT22;6808;49.444;11.034;2022-10-31T01:01:04;12.20;99.90
13472;DHT22;6808;49.444;11.034;2022-10-31T01:03:31;12.10;99.90
13472;DHT22;6808;49.444;11.034;2022-10-31T01:05:58;12.30;99.90
13472;DHT22;6808;49.444;11.034;2022-10-31T01:08:24;12.10;99.90
13472;DHT22;6808;49.444;11.034;2022-10-31T01:11:05;12.00;99.90
13472;DHT22;6808;49.444;11.034;2022-10-31T01:13:32;12.00;99.90
13472;DHT22;6808;49.444;11.034;2022-10-31T01:15:59;12.00;99.90
13472;DHT22;6808;49.444;11.034;2022-10-31T01:18:25;12.00;99.90
13472;DHT22;6808;49.444;11.034;2022-10-31T01:20:59;12.30;99.90
13472;DHT22;6808;49.444;11.034;2022-10-31T01:23:25;12.00;99.90
13472;DHT22;6808;49.444;11.034;2022-10-31T01:28:35;11.90;99.90
13472;DHT22;6808;49.444;11.034;2022-10-31T01:31:03;11.80;99.90
13472;DHT22;6808;49.444;11.034;2022-10-31T01:33:29;11.80;99.90
13472;DHT22;6808;49.444;11.034;2022-10-31T01:35:55;11.80;99.90
13472;DHT22;6808;49.444;11.034;2022-10-31T01:38:21;11.80;99.90
13472;DHT22;6808;49.444;11.034;2022-10-31T01:40:46;11.80;99.90
13472;DHT22;6808;49.444;11.034;2022-10-31T01:43:15;11.80;99.90
13472;DHT22;6808;49.444;11.034;2022-10-31T01:45:44;11.70;99.90
13472;DHT22;6808;49.444;11.034;2022-10-31T01:48:18;11.70;99.90
13472;DHT22;6808;49.444;11.034;2022-10-31T01:50:47;11.70;99.90
13472;DHT22;6808;49.444;11.034;2022-10-31T01:53:14;11.70;99.90
13472;DHT22;6808;49.444;11.034;2022-10-31T01:55:43;11.70;99.90
13472;DHT22;6808;49.444;11.034;2022-10-31T01:58:14;11.70;99.90
13472;DHT22;6808;49.444;11.034;2022-10-31T02:00:43;11.70;99.90
13472;DHT22;6808;49.444;11.034;2022-10-31T02:03:10;11.80;99.90
13472;DHT22;6808;49.444;11.034;2022-10-31T02:05:36;11.70;99.90
13472;DHT22;6808;49.444;11.034;2022-10-31T02:08:06;11.60;99.90
13472;DHT22;6808;49.444;11.034;2022-10-31T02:10:34;11.60;99.90
13472;DHT22;6808;49.444;11.034;2022-10-31T02:13:03;11.60;99.90
13472;DHT22;6808;49.444;11.034;2022-10-31T02:15:31;11.60;99.90
13472;DHT22;6808;49.444;11.034;2022-10-31T02:17:57;11.50;99.90
13472;DHT22;6808;49.444;11.034;2022-10-31T02:20:25;11.50;99.90
13472;DHT22;6808;49.444;11.034;2022-10-31T02:25:58;11.50;99.90
13472;DHT22;6808;49.444;11.034;2022-10-31T02:28:49;11.50;99.90
13472;DHT22;6808;49.444;11.034;2022-10-31T02:31:46;11.50;99.90
13472;DHT22;6808;49.444;11.034;2022-10-31T02:34:39;11.50;99.90
13472;DHT22;6808;49.444;11.034;2022-10-31T02:40:05;11.50;99.90
13472;DHT22;6808;49.444;11.034;2022-10-31T02:47:50;11.40;99.90
13472;DHT22;6808;49.444;11.034;2022-10-31T02:50:23;11.30;99.90
13472;DHT22;6808;49.444;11.034;2022-10-31T02:52:52;11.30;99.90
13472;DHT22;6808;49.444;11.034;2022-10-31T02:58:17;11.20;99.90
13472;DHT22;6808;49.444;11.034;2022-10-31T03:06:35;11.20;99.90
13472;DHT22;6808;49.444;11.034;2022-10-31T03:09:07;11.20;99.90
13472;DHT22;6808;49.444;11.034;2022-10-31T03:14:53;11.10;99.90
13472;DHT22;6808;49.444;11.034;2022-10-31T03:17:38;11.10;99.90
13472;DHT22;6808;49.444;11.034;2022-10-31T03:20:09;11.20;99.90
13472;DHT22;6808;49.444;11.034;2022-10-31T03:22:36;11.20;99.90
13472;DHT22;6808;49.444;11.034;2022-10-31T03:25:04;11.20;99.90
13472;DHT22;6808;49.444;11.034;2022-10-31T03:27:33;11.20;99.90
13472;DHT22;6808;49.444;11.034;2022-10-31T03:30:03;11.10;99.90
13472;DHT22;6808;49.444;11.034;2022-10-31T03:32:34;11.20;99.90
13472;DHT22;6808;49.444;11.034;2022-10-31T03:35:02;11.20;99.90
13472;DHT22;6808;49.444;11.034;2022-10-31T03:37:32;11.10;99.90
13472;DHT22;6808;49.444;11.034;2022-10-31T03:40:00;11.10;99.90
13472;DHT22;6808;49.444;11.034;2022-10-31T03:42:28;11.10;99.90
13472;DHT22;6808;49.444;11.034;2022-10-31T03:45:05;11.10;99.90
13472;DHT22;6808;49.444;11.034;2022-10-31T03:47:32;11.00;99.90
13472;DHT22;6808;49.444;11.034;2022-10-31T03:49:58;11.00;99.90
13472;DHT22;6808;49.444;11.034;2022-10-31T03:52:45;11.50;99.90
13472;DHT22;6808;49.444;11.034;2022-10-31T03:55:39;11.00;99.90
13472;DHT22;6808;49.444;11.034;2022-10-31T03:58:12;11.00;99.90
13472;DHT22;6808;49.444;11.034;2022-10-31T04:00:43;11.10;99.90
13472;DHT22;6808;49.444;11.034;2022-10-31T04:03:14;11.00;99.90
13472;DHT22;6808;49.444;11.034;2022-10-31T04:05:42;11.10;99.90
13472;DHT22;6808;49.444;11.034;2022-10-31T04:08:13;11.00;99.90
13472;DHT22;6808;49.444;11.034;2022-10-31T04:10:41;11.00;99.90
13472;DHT22;6808;49.444;11.034;2022-10-31T04:13:12;11.00;99.90
13472;DHT22;6808;49.444;11.034;2022-10-31T04:15:41;11.00;99.90
13472;DHT22;6808;49.444;11.034;2022-10-31T04:18:07;10.90;99.90
13472;DHT22;6808;49.444;11.034;2022-10-31T04:20:39;10.90;99.90
13472;DHT22;6808;49.444;11.034;2022-10-31T04:23:10;11.00;99.90
13472;DHT22;6808;49.444;11.034;2022-10-31T04:25:39;10.80;99.90
13472;DHT22;6808;49.444;11.034;2022-10-31T04:28:04;10.80;99.90
13472;DHT22;6808;49.444;11.034;2022-10-31T04:30:30;10.90;99.90
13472;DHT22;6808;49.444;11.034;2022-10-31T04:32:56;10.80;99.90
13472;DHT22;6808;49.444;11.034;2022-10-31T04:35:21;10.70;99.90
13472;DHT22;6808;49.444;11.034;2022-10-31T04:37:47;10.70;99.90
13472;DHT22;6808;49.444;11.034;2022-10-31T04:40:12;10.70;99.90
13472;DHT22;6808;49.444;11.034;2022-10-31T04:42:38;10.70;99.90
13472;DHT22;6808;49.444;11.034;2022-10-31T04:45:04;10.80;99.90
13472;DHT22;6808;49.444;11.034;2022-10-31T04:47:31;10.60;99.90
13472;DHT22;6808;49.444;11.034;2022-10-31T04:49:57;10.60;99.90
13472;DHT22;6808;49.444;11.034;2022-10-31T04:52:23;10.60;99.90
13472;DHT22;6808;49.444;11.034;2022-10-31T04:54:48;10.70;99.90
13472;DHT22;6808;49.444;11.034;2022-10-31T04:57:14;10.60;99.90
13472;DHT22;6808;49.444;11.034;2022-10-31T04:59:40;10.60;99.90
13472;DHT22;6808;49.444;11.034;2022-10-31T05:02:05;10.50;99.90
13472;DHT22;6808;49.444;11.034;2022-10-31T05:04:31;10.70;99.90
13472;DHT22;6808;49.444;11.034;2022-10-31T05:06:56;10.50;99.90
13472;DHT22;6808;49.444;11.034;2022-10-31T05:09:22;10.50;99.90
13472;DHT22;6808;49.444;11.034;2022-10-31T05:11:47;10.40;99.90
13472;DHT22;6808;49.444;11.034;2022-10-31T05:14:13;10.40;99.90
13472;DHT22;6808;49.444;11.034;2022-10-31T05:16:38;10.60;99.90
13472;DHT22;6808;49.444;11.034;2022-10-31T05:19:04;10.80;99.90
13472;DHT22;6808;49.444;11.034;2022-10-31T05:21:29;10.40;99.90
13472;DHT22;6808;49.444;11.034;2022-10-31T05:23:55;10.60;99.90
13472;DHT22;6808;49.444;11.034;2022-10-31T05:26:20;10.30;99.90
13472;DHT22;6808;49.444;11.034;2022-10-31T05:28:46;10.50;99.90
13472;DHT22;6808;49.444;11.034;2022-10-31T05:31:12;10.30;99.90
13472;DHT22;6808;49.444;11.034;2022-10-31T05:33:37;10.30;99.90
13472;DHT22;6808;49.444;11.034;2022-10-31T05:36:03;10.30;99.90
13472;DHT22;6808;49.444;11.034;2022-10-31T05:38:29;10.30;99.90
13472;DHT22;6808;49.444;11.034;2022-10-31T05:40:55;10.30;99.90
13472;DHT22;6808;49.444;11.034;2022-10-31T05:43:26;10.40;99.90
13472;DHT22;6808;49.444;11.034;2022-10-31T05:45:56;10.40;99.90
13472;DHT22;6808;49.444;11.034;2022-10-31T05:48:21;10.20;99.90
13472;DHT22;6808;49.444;11.034;2022-10-31T05:50:48;10.30;99.90
13472;DHT22;6808;49.444;11.034;2022-10-31T05:53:14;10.80;99.90
13472;DHT22;6808;49.444;11.034;2022-10-31T05:55:41;10.20;99.90
13472;DHT22;6808;49.444;11.034;2022-10-31T05:58:08;10.30;99.90
13472;DHT22;6808;49.444;11.034;2022-10-31T06:00:33;10.20;99.90
13472;DHT22;6808;49.444;11.034;2022-10-31T06:03:05;11.20;99.90
13472;DHT22;6808;49.444;11.034;2022-10-31T06:05:31;10.10;99.90
13472;DHT22;6808;49.444;11.034;2022-10-31T06:07:57;10.00;99.90
13472;DHT22;6808;49.444;11.034;2022-10-31T06:10:23;10.00;99.90
13472;DHT22;6808;49.444;11.034;2022-10-31T06:12:48;10.40;99.90
13472;DHT22;6808;49.444;11.034;2022-10-31T06:15:14;10.50;99.90
13472;DHT22;6808;49.444;11.034;2022-10-31T06:17:40;10.00;99.90
13472;DHT22;6808;49.444;11.034;2022-10-31T06:20:06;10.00;99.90
13472;DHT22;6808;49.444;11.034;2022-10-31T06:22:32;10.00;99.90
13472;DHT22;6808;49.444;11.034;2022-10-31T06:24:58;9.90;99.90
13472;DHT22;6808;49.444;11.034;2022-10-31T06:27:24;10.00;99.90
13472;DHT22;6808;49.444;11.034;2022-10-31T06:29:50;9.90;99.90
13472;DHT22;6808;49.444;11.034;2022-10-31T06:32:16;10.20;99.90
13472;DHT22;6808;49.444;11.034;2022-10-31T06:34:42;10.40;99.90
13472;DHT22;6808;49.444;11.034;2022-10-31T06:37:10;10.00;99.90
13472;DHT22;6808;49.444;11.034;2022-10-31T06:39:35;10.20;99.90
13472;DHT22;6808;49.444;11.034;2022-10-31T06:42:02;10.20;99.90
13472;DHT22;6808;49.444;11.034;2022-10-31T06:44:27;10.10;99.90
13472;DHT22;6808;49.444;11.034;2022-10-31T06:46:53;10.10;99.90
13472;DHT22;6808;49.444;11.034;2022-10-31T06:49:19;10.00;99.90
13472;DHT22;6808;49.444;11.034;2022-10-31T06:51:47;10.20;99.90
13472;DHT22;6808;49.444;11.034;2022-10-31T06:54:13;10.40;99.90
13472;DHT22;6808;49.444;11.034;2022-10-31T06:56:39;10.00;99.90
13472;DHT22;6808;49.444;11.034;2022-10-31T06:59:04;10.40;99.90
13472;DHT22;6808;49.444;11.034;2022-10-31T07:01:30;10.10;99.90
13472;DHT22;6808;49.444;11.034;2022-10-31T07:03:55;10.50;99.90
13472;DHT22;6808;49.444;11.034;2022-10-31T07:06:21;10.10;99.90
13472;DHT22;6808;49.444;11.034;2022-10-31T07:08:46;10.70;99.90
13472;DHT22;6808;49.444;11.034;2022-10-31T07:11:12;10.10;99.90
13472;DHT22;6808;49.444;11.034;2022-10-31T07:13:38;11.30;99.90
13472;DHT22;6808;49.444;11.034;2022-10-31T07:16:05;10.50;99.90
13472;DHT22;6808;49.444;11.034;2022-10-31T07:18:37;10.20;99.90
13472;DHT22;6808;49.444;11.034;2022-10-31T07:21:03;10.20;99.90
13472;DHT22;6808;49.444;11.034;2022-10-31T07:23:29;10.20;99.90
13472;DHT22;6808;49.444;11.034;2022-10-31T07:25:56;10.30;99.90
13472;DHT22;6808;49.444;11.034;2022-10-31T07:28:22;10.30;99.90
13472;DHT22;6808;49.444;11.034;2022-10-31T07:30:56;10.30;99.90
13472;DHT22;6808;49.444;11.034;2022-10-31T07:33:23;10.30;99.90
13472;DHT22;6808;49.444;11.034;2022-10-31T07:35:51;10.30;99.90
13472;DHT22;6808;49.444;11.034;2022-10-31T07:38:17;10.50;99.90
13472;DHT22;6808;49.444;11.034;2022-10-31T07:40:43;10.40;99.90
13472;DHT22;6808;49.444;11.034;2022-10-31T07:43:10;10.50;99.90
13472;DHT22;6808;49.444;11.034;2022-10-31T07:45:37;10.60;99.90
13472;DHT22;6808;49.444;11.034;2022-10-31T07:48:02;10.60;99.90
13472;DHT22;6808;49.444;11.034;2022-10-31T07:50:31;10.70;99.90
13472;DHT22;6808;49.444;11.034;2022-10-31T07:53:01;10.70;99.90
13472;DHT22;6808;49.444;11.034;2022-10-31T07:55:28;10.70;99.90
13472;DHT22;6808;49.444;11.034;2022-10-31T07:58:05;11.00;99.90
13472;DHT22;6808;49.444;11.034;2022-10-31T08:00:33;10.80;99.90
13472;DHT22;6808;49.444;11.034;2022-10-31T08:03:03;10.80;99.90
13472;DHT22;6808;49.444;11.034;2022-10-31T08:05:30;10.80;99.90
13472;DHT22;6808;49.444;11.034;2022-10-31T08:07:56;11.10;99.90
13472;DHT22;6808;49.444;11.034;2022-10-31T08:10:23;11.50;99.90
13472;DHT22;6808;49.444;11.034;2022-10-31T08:12:55;10.90;99.90
13472;DHT22;6808;49.444;11.034;2022-10-31T08:15:22;10.90;99.90
13472;DHT22;6808;49.444;11.034;2022-10-31T08:17:47;11.10;99.90
13472;DHT22;6808;49.444;11.034;2022-10-31T08:20:13;11.00;99.90
13472;DHT22;6808;49.444;11.034;2022-10-31T08:22:38;11.00;99.90
13472;DHT22;6808;49.444;11.034;2022-10-31T08:25:05;11.60;99.90
13472;DHT22;6808;49.444;11.034;2022-10-31T08:27:32;11.10;99.90
13472;DHT22;6808;49.444;11.034;2022-10-31T08:29:58;11.10;99.90
13472;DHT22;6808;49.444;11.034;2022-10-31T08:32:24;11.20;99.90
13472;DHT22;6808;49.444;11.034;2022-10-31T08:34:49;11.20;99.90
13472;DHT22;6808;49.444;11.034;2022-10-31T08:37:15;11.40;99.90
13472;DHT22;6808;49.444;11.034;2022-10-31T08:39:46;11.30;99.90
13472;DHT22;6808;49.444;11.034;2022-10-31T08:42:11;11.30;99.90
13472;DHT22;6808;49.444;11.034;2022-10-31T08:44:37;11.40;99.90
13472;DHT22;6808;49.444;11.034;2022-10-31T08:47:03;11.60;99.90
13472;DHT22;6808;49.444;11.034;2022-10-31T08:49:29;11.50;99.90
13472;DHT22;6808;49.444;11.034;2022-10-31T08:51:54;11.60;99.90
13472;DHT22;6808;49.444;11.034;2022-10-31T08:54:20;11.60;99.90
13472;DHT22;6808;49.444;11.034;2022-10-31T08:56:46;11.70;99.90
13472;DHT22;6808;49.444;11.034;2022-10-31T08:59:11;12.20;99.90
13472;DHT22;6808;49.444;11.034;2022-10-31T09:01:37;11.80;99.90
13472;DHT22;6808;49.444;11.034;2022-10-31T09:04:02;11.80;99.90
13472;DHT22;6808;49.444;11.034;2022-10-31T09:06:28;11.90;99.90
13472;DHT22;6808;49.444;11.034;2022-10-31T09:08:54;11.90;99.90
13472;DHT22;6808;49.444;11.034;2022-10-31T09:11:19;12.00;99.90
13472;DHT22;6808;49.444;11.034;2022-10-31T09:13:45;12.00;99.90
13472;DHT22;6808;49.444;11.034;2022-10-31T09:16:10;12.10;99.90
13472;DHT22;6808;49.444;11.034;2022-10-31T09:18:36;12.20;99.90
13472;DHT22;6808;49.444;11.034;2022-10-31T09:21:02;12.20;99.90
13472;DHT22;6808;49.444;11.034;2022-10-31T09:23:28;12.30;99.90
13472;DHT22;6808;49.444;11.034;2022-10-31T09:25:53;12.40;99.90
13472;DHT22;6808;49.444;11.034;2022-10-31T09:28:21;12.50;99.90
13472;DHT22;6808;49.444;11.034;2022-10-31T09:30:52;12.50;99.90
13472;DHT22;6808;49.444;11.034;2022-10-31T09:33:18;12.50;99.90
13472;DHT22;6808;49.444;11.034;2022-10-31T09:35:44;12.90;99.90
13472;DHT22;6808;49.444;11.034;2022-10-31T09:38:18;12.70;99.90
13472;DHT22;6808;49.444;11.034;2022-10-31T09:40:55;12.80;99.90
13472;DHT22;6808;49.444;11.034;2022-10-31T09:43:48;13.00;99.90
13472;DHT22;6808;49.444;11.034;2022-10-31T09:46:37;13.10;99.90
13472;DHT22;6808;49.444;11.034;2022-10-31T09:49:18;13.20;99.90
13472;DHT22;6808;49.444;11.034;2022-10-31T09:54:41;13.50;99.90
13472;DHT22;6808;49.444;11.034;2022-10-31T09:57:14;13.60;99.90
13472;DHT22;6808;49.444;11.034;2022-10-31T09:59:43;13.70;99.90
13472;DHT22;6808;49.444;11.034;2022-10-31T10:02:13;13.60;99.90
13472;DHT22;6808;49.444;11.034;2022-10-31T10:05:02;13.80;99.90
13472;DHT22;6808;49.444;11.034;2022-10-31T10:13:22;14.10;99.90
13472;DHT22;6808;49.444;11.034;2022-10-31T10:25:02;14.50;99.90
13472;DHT22;6808;49.444;11.034;2022-10-31T10:30:45;14.70;99.90
13472;DHT22;6808;49.444;11.034;2022-10-31T10:33:19;14.90;99.90
13472;DHT22;6808;49.444;11.034;2022-10-31T10:35:52;15.00;99.90
13472;DHT22;6808;49.444;11.034;2022-10-31T10:38:50;15.00;99.90
13472;DHT22;6808;49.444;11.034;2022-10-31T10:41:22;15.30;99.90
13472;DHT22;6808;49.444;11.034;2022-10-31T10:43:51;15.40;99.90
13472;DHT22;6808;49.444;11.034;2022-10-31T10:49:18;15.60;99.90
13472;DHT22;6808;49.444;11.034;2022-10-31T10:59:43;15.90;99.90
13472;DHT22;6808;49.444;11.034;2022-10-31T11:02:22;16.00;99.90
13472;DHT22;6808;49.444;11.034;2022-10-31T11:04:54;15.90;99.90
13472;DHT22;6808;49.444;11.034;2022-10-31T11:07:21;15.90;99.90
13472;DHT22;6808;49.444;11.034;2022-10-31T11:09:47;16.00;99.90
13472;DHT22;6808;49.444;11.034;2022-10-31T11:12:28;16.10;99.90
13472;DHT22;6808;49.444;11.034;2022-10-31T11:14:57;15.90;99.90
13472;DHT22;6808;49.444;11.034;2022-10-31T11:17:39;15.90;99.90
13472;DHT22;6808;49.444;11.034;2022-10-31T11:23:02;16.00;99.90
13472;DHT22;6808;49.444;11.034;2022-10-31T11:25:28;16.10;99.90
13472;DHT22;6808;49.444;11.034;2022-10-31T11:28:05;16.40;99.90
13472;DHT22;6808;49.444;11.034;2022-10-31T11:30:49;16.20;99.90
13472;DHT22;6808;49.444;11.034;2022-10-31T11:33:40;16.30;99.90
13472;DHT22;6808;49.444;11.034;2022-10-31T11:36:18;16.50;99.90
13472;DHT22;6808;49.444;11.034;2022-10-31T11:38:46;16.60;99.90
13472;DHT22;6808;49.444;11.034;2022-10-31T11:41:15;16.70;99.90
13472;DHT22;6808;49.444;11.034;2022-10-31T11:44:02;16.80;99.90
13472;DHT22;6808;49.444;11.034;2022-10-31T11:46:52;16.70;99.90
13472;DHT22;6808;49.444;11.034;2022-10-31T11:49:35;16.70;99.90
13472;DHT22;6808;49.444;11.034;2022-10-31T11:54:45;16.80;99.90
13472;DHT22;6808;49.444;11.034;2022-10-31T11:57:23;16.90;99.90
13472;DHT22;6808;49.444;11.034;2022-10-31T12:00:00;17.00;99.90
13472;DHT22;6808;49.444;11.034;2022-10-31T12:02:26;17.20;99.90
13472;DHT22;6808;49.444;11.034;2022-10-31T12:05:05;17.00;99.90
13472;DHT22;6808;49.444;11.034;2022-10-31T12:07:33;17.10;99.90
13472;DHT22;6808;49.444;11.034;2022-10-31T12:09:58;17.30;99.90
13472;DHT22;6808;49.444;11.034;2022-10-31T12:12:59;17.30;99.90
13472;DHT22;6808;49.444;11.034;2022-10-31T12:15:26;17.30;99.90
13472;DHT22;6808;49.444;11.034;2022-10-31T12:17:58;17.40;99.90
13472;DHT22;6808;49.444;11.034;2022-10-31T12:23:23;17.50;99.90
13472;DHT22;6808;49.444;11.034;2022-10-31T12:29:06;17.70;99.90
13472;DHT22;6808;49.444;11.034;2022-10-31T12:31:48;17.70;99.90
13472;DHT22;6808;49.444;11.034;2022-10-31T12:34:33;17.80;99.90
13472;DHT22;6808;49.444;11.034;2022-10-31T12:42:53;17.90;99.90
13472;DHT22;6808;49.444;11.034;2022-10-31T12:45:45;18.00;99.90
13472;DHT22;6808;49.444;11.034;2022-10-31T12:51:12;18.00;99.90
13472;DHT22;6808;49.444;11.034;2022-10-31T12:53:59;18.10;99.90
13472;DHT22;6808;49.444;11.034;2022-10-31T12:56:50;18.10;99.90
13472;DHT22;6808;49.444;11.034;2022-10-31T12:59:39;18.10;99.90
13472;DHT22;6808;49.444;11.034;2022-10-31T13:05:14;18.20;99.90
13472;DHT22;6808;49.444;11.034;2022-10-31T13:07:50;18.20;99.90
13472;DHT22;6808;49.444;11.034;2022-10-31T13:10:19;18.10;99.90
13472;DHT22;6808;49.444;11.034;2022-10-31T13:12:49;18.10;99.90
13472;DHT22;6808;49.444;11.034;2022-10-31T13:15:24;18.10;99.90
13472;DHT22;6808;49.444;11.034;2022-10-31T13:17:59;18.10;99.90
13472;DHT22;6808;49.444;11.034;2022-10-31T13:20:40;18.10;99.90
13472;DHT22;6808;49.444;11.034;2022-10-31T13:23:30;18.10;99.90
13472;DHT22;6808;49.444;11.034;2022-10-31T13:25:58;18.00;99.90
13472;DHT22;6808;49.444;11.034;2022-10-31T13:28:44;18.00;99.90
13472;DHT22;6808;49.444;11.034;2022-10-31T13:31:12;18.00;99.90
13472;DHT22;6808;49.444;11.034;2022-10-31T13:41:50;17.90;99.90
13472;DHT22;6808;49.444;11.034;2022-10-31T13:44:26;18.00;99.90
13472;DHT22;6808;49.444;11.034;2022-10-31T13:46:54;18.00;99.90
13472;DHT22;6808;49.444;11.034;2022-10-31T13:57:33;18.00;99.90
13472;DHT22;6808;49.444;11.034;2022-10-31T14:00:04;18.00;99.90
13472;DHT22;6808;49.444;11.034;2022-10-31T14:02:33;18.00;99.90
13472;DHT22;6808;49.444;11.034;2022-10-31T14:05:05;18.00;99.90
13472;DHT22;6808;49.444;11.034;2022-10-31T14:07:32;18.00;99.90
13472;DHT22;6808;49.444;11.034;2022-10-31T14:13:14;18.00;99.90
13472;DHT22;6808;49.444;11.034;2022-10-31T14:15:43;18.00;99.90
13472;DHT22;6808;49.444;11.034;2022-10-31T14:18:38;18.00;99.90
13472;DHT22;6808;49.444;11.034;2022-10-31T14:23:48;17.90;99.90
13472;DHT22;6808;49.444;11.034;2022-10-31T14:26:34;17.80;99.90
13472;DHT22;6808;49.444;11.034;2022-10-31T14:31:42;17.70;99.90
13472;DHT22;6808;49.444;11.034;2022-10-31T14:47:43;17.50;99.90
13472;DHT22;6808;49.444;11.034;2022-10-31T14:53:05;17.40;99.90
13472;DHT22;6808;49.444;11.034;2022-10-31T14:55:32;17.30;99.90
13472;DHT22;6808;49.444;11.034;2022-10-31T14:58:01;17.30;99.90
13472;DHT22;6808;49.444;11.034;2022-10-31T15:00:30;17.30;99.90
13472;DHT22;6808;49.444;11.034;2022-10-31T15:03:16;17.20;99.90
13472;DHT22;6808;49.444;11.034;2022-10-31T15:05:50;17.20;99.90
13472;DHT22;6808;49.444;11.034;2022-10-31T15:08:32;17.20;99.90
13472;DHT22;6808;49.444;11.034;2022-10-31T15:10:59;17.10;99.90
13472;DHT22;6808;49.444;11.034;2022-10-31T15:13:27;17.10;99.90
13472;DHT22;6808;49.444;11.034;2022-10-31T15:15:55;17.00;99.90
13472;DHT22;6808;49.444;11.034;2022-10-31T15:18:27;17.00;99.90
13472;DHT22;6808;49.444;11.034;2022-10-31T15:20:55;17.00;99.90
13472;DHT22;6808;49.444;11.034;2022-10-31T15:23:29;17.00;99.90
13472;DHT22;6808;49.444;11.034;2022-10-31T15:26:00;16.90;99.90
13472;DHT22;6808;49.444;11.034;2022-10-31T15:28:26;16.90;99.90
13472;DHT22;6808;49.444;11.034;2022-10-31T15:30:54;16.90;99.90
13472;DHT22;6808;49.444;11.034;2022-10-31T15:33:28;16.80;99.90
13472;DHT22;6808;49.444;11.034;2022-10-31T15:36:02;16.80;99.90
13472;DHT22;6808;49.444;11.034;2022-10-31T15:38:28;16.70;99.90
13472;DHT22;6808;49.444;11.034;2022-10-31T15:41:22;16.70;99.90
13472;DHT22;6808;49.444;11.034;2022-10-31T15:43:44;16.60;99.90
13472;DHT22;6808;49.444;11.034;2022-10-31T15:46:11;16.60;99.90
13472;DHT22;6808;49.444;11.034;2022-10-31T15:48:37;16.60;99.90
13472;DHT22;6808;49.444;11.034;2022-10-31T15:51:04;16.50;99.90
13472;DHT22;6808;49.444;11.034;2022-10-31T15:53:49;16.50;99.90
13472;DHT22;6808;49.444;11.034;2022-10-31T15:56:29;16.50;99.90
13472;DHT22;6808;49.444;11.034;2022-10-31T15:58:58;16.40;99.90
13472;DHT22;6808;49.444;11.034;2022-10-31T16:01:26;16.40;99.90
13472;DHT22;6808;49.444;11.034;2022-10-31T16:04:14;16.30;99.90
13472;DHT22;6808;49.444;11.034;2022-10-31T16:06:45;16.30;99.90
13472;DHT22;6808;49.444;11.034;2022-10-31T16:09:23;16.30;99.90
13472;DHT22;6808;49.444;11.034;2022-10-31T16:11:49;16.20;99.90
13472;DHT22;6808;49.444;11.034;2022-10-31T16:14:18;16.20;99.90
13472;DHT22;6808;49.444;11.034;2022-10-31T16:16:49;16.10;99.90
13472;DHT22;6808;49.444;11.034;2022-10-31T16:21:48;16.10;99.90
13472;DHT22;6808;49.444;11.034;2022-10-31T16:24:28;16.00;99.90
13472;DHT22;6808;49.444;11.034;2022-10-31T16:27:04;15.90;99.90
13472;DHT22;6808;49.444;11.034;2022-10-31T16:29:43;15.90;99.90
13472;DHT22;6808;49.444;11.034;2022-10-31T16:35:24;15.80;99.90
13472;DHT22;6808;49.444;11.034;2022-10-31T16:37:50;15.80;99.90
13472;DHT22;6808;49.444;11.034;2022-10-31T16:40:16;15.80;99.90
13472;DHT22;6808;49.444;11.034;2022-10-31T16:42:43;15.70;99.90
13472;DHT22;6808;49.444;11.034;2022-10-31T16:45:21;15.60;99.90
13472;DHT22;6808;49.444;11.034;2022-10-31T16:47:48;15.60;99.90
13472;DHT22;6808;49.444;11.034;2022-10-31T16:50:25;15.60;99.90
13472;DHT22;6808;49.444;11.034;2022-10-31T16:52:52;15.50;99.90
13472;DHT22;6808;49.444;11.034;2022-10-31T16:55:19;15.50;99.90
13472;DHT22;6808;49.444;11.034;2022-10-31T16:57:48;15.50;99.90
13472;DHT22;6808;49.444;11.034;2022-10-31T17:00:18;15.40;99.90
13472;DHT22;6808;49.444;11.034;2022-10-31T17:02:45;15.40;99.90
13472;DHT22;6808;49.444;11.034;2022-10-31T17:05:14;15.20;99.90
13472;DHT22;6808;49.444;11.034;2022-10-31T17:07:41;15.30;99.90
13472;DHT22;6808;49.444;11.034;2022-10-31T17:10:07;15.20;99.90
13472;DHT22;6808;49.444;11.034;2022-10-31T17:12:34;15.20;99.90
13472;DHT22;6808;49.444;11.034;2022-10-31T17:15:00;15.20;99.90
13472;DHT22;6808;49.444;11.034;2022-10-31T17:17:26;15.10;99.90
13472;DHT22;6808;49.444;11.034;2022-10-31T17:19:52;15.10;99.90
13472;DHT22;6808;49.444;11.034;2022-10-31T17:22:17;15.10;99.90
13472;DHT22;6808;49.444;11.034;2022-10-31T17:24:43;15.00;99.90
13472;DHT22;6808;49.444;11.034;2022-10-31T17:27:09;15.00;99.90
13472;DHT22;6808;49.444;11.034;2022-10-31T17:29:35;15.00;99.90
13472;DHT22;6808;49.444;11.034;2022-10-31T17:32:01;14.90;99.90
13472;DHT22;6808;49.444;11.034;2022-10-31T17:34:28;14.90;99.90
13472;DHT22;6808;49.444;11.034;2022-10-31T17:36:54;14.80;99.90
13472;DHT22;6808;49.444;11.034;2022-10-31T17:39:19;14.80;99.90
13472;DHT22;6808;49.444;11.034;2022-10-31T17:41:48;14.70;99.90
13472;DHT22;6808;49.444;11.034;2022-10-31T17:44:14;14.70;99.90
13472;DHT22;6808;49.444;11.034;2022-10-31T17:46:40;14.60;99.90
13472;DHT22;6808;49.444;11.034;2022-10-31T17:49:05;14.60;99.90
13472;DHT22;6808;49.444;11.034;2022-10-31T17:51:33;14.80;99.90
13472;DHT22;6808;49.444;11.034;2022-10-31T17:53:59;14.60;99.90